Time;durP1;ratioP1;P1;durP2;ratioP2;P2;SDS_P1;SDS_P2;PMS_P1;PMS_P2;Temp;Humidity;BMP_temperature;BMP_pressure;BME280_temperature;BME280_humidity;BME280_pressure;Samples;Min_cycle;Max_cycle;Signal;HPM_P1;HPM_P2
2022/05/14 00:01:58;;;;;;;4.60;4.10;;;12.70;84.20;;;12.51;64.87;101261.00;5028276;28;20863;-70
2022/05/14 00:04:29;;;;;;;4.90;3.43;;;12.60;86.60;;;12.56;64.61;101251.19;5023882;28;20407;-70
2022/05/14 00:06:58;;;;;;;4.47;4.07;;;12.60;87.90;;;12.53;64.56;101254.34;5025582;28;20450;-72
2022/05/14 00:09:27;;;;;;;6.17;5.10;;;12.60;88.70;;;12.47;65.05;101249.72;5034061;28;20463;-71
2022/05/14 00:14:42;;;;;;;4.17;3.77;;;12.50;91.20;;;12.47;65.14;101247.00;5033336;28;20515;-70
2022/05/14 00:17:11;;;;;;;4.50;4.10;;;12.50;91.80;;;12.36;65.45;101244.88;5029400;28;20469;-70
2022/05/14 00:19:41;;;;;;;5.13;4.43;;;12.50;92.50;;;12.38;65.36;101242.81;5029475;28;20472;-70
2022/05/14 00:22:10;;;;;;;8.00;4.20;;;12.50;93.10;;;12.43;65.30;101248.47;5032803;28;20441;-70
2022/05/14 00:24:39;;;;;;;7.17;3.87;;;12.50;93.10;;;12.51;64.88;101239.28;5025441;28;20449;-70
2022/05/14 00:27:08;;;;;;;6.03;4.23;;;12.50;92.80;;;12.47;65.22;101241.56;5027809;28;20479;-70
2022/05/14 00:29:37;;;;;;;9.30;5.30;;;12.50;93.60;;;12.66;64.60;101245.34;5034026;28;20441;-71
2022/05/14 00:32:07;;;;;;;5.67;5.10;;;12.60;92.90;;;12.50;65.08;101238.44;5028340;28;20419;-71
2022/05/14 00:34:36;;;;;;;5.70;4.30;;;12.60;93.20;;;12.49;65.26;101239.47;5053980;28;20448;-70
2022/05/14 00:37:06;;;;;;;6.53;4.80;;;12.60;93.50;;;12.47;65.24;101238.03;5023326;28;20429;-71
2022/05/14 00:39:35;;;;;;;6.37;4.80;;;12.50;94.00;;;12.36;65.60;101236.75;5042279;28;20489;-70
2022/05/14 00:42:06;;;;;;;6.67;4.13;;;12.40;94.00;;;12.29;65.96;101235.06;5022165;28;20496;-71
2022/05/14 00:44:35;;;;;;;5.40;4.47;;;12.40;95.70;;;12.19;65.98;101236.31;5022986;28;20440;-71
2022/05/14 00:47:11;;;;;;;5.30;3.73;;;12.40;96.30;;;12.05;66.48;101239.97;5022238;28;20485;-71
2022/05/14 00:49:40;;;;;;;7.90;3.97;;;12.20;97.20;;;11.94;67.09;101247.88;5030784;28;20452;-70
2022/05/14 00:52:16;;;;;;;4.17;3.77;;;12.10;99.30;;;11.95;67.24;101236.84;5037496;28;20485;-70
2022/05/14 00:54:51;;;;;;;6.20;4.63;;;12.10;99.90;;;11.96;67.40;101245.78;5018950;28;20444;-71
2022/05/14 00:57:29;;;;;;;5.33;4.50;;;12.10;99.90;;;12.10;66.99;101247.53;5017043;28;20436;-69
2022/05/14 01:00:04;;;;;;;4.07;3.70;;;12.20;99.90;;;12.29;66.53;101246.75;5023003;28;20476;-71
2022/05/14 01:02:33;;;;;;;4.93;4.00;;;12.30;99.90;;;12.52;65.57;101252.66;5010480;28;20775;-70
2022/05/14 01:05:03;;;;;;;3.80;3.40;;;12.40;99.00;;;12.52;65.79;101240.97;5027984;28;20473;-71
2022/05/14 01:07:37;;;;;;;4.97;4.47;;;12.50;98.40;;;12.68;65.12;101248.72;5034455;28;20860;-70
2022/05/14 01:10:11;;;;;;;5.40;3.73;;;12.50;97.90;;;12.88;64.33;101235.13;5016120;28;20504;-70
2022/05/14 01:12:52;;;;;;;4.67;4.27;;;12.70;95.80;;;13.09;63.49;101248.50;5034212;28;20510;-70
2022/05/14 01:15:38;;;;;;;4.20;3.70;;;12.90;93.30;;;13.05;63.69;101244.53;5018115;28;20519;-70
2022/05/14 01:18:07;;;;;;;6.77;5.03;;;12.90;92.40;;;13.21;63.36;101246.03;5030964;28;20419;-70
2022/05/14 01:20:36;;;;;;;7.10;6.50;;;13.00;91.60;;;13.18;63.07;101252.69;5040056;28;20470;-70
2022/05/14 01:23:22;;;;;;;4.97;4.50;;;13.10;90.20;;;13.19;63.23;101256.25;5034016;28;20888;-71
2022/05/14 01:26:29;;;;;;;8.10;4.93;;;13.10;90.90;;;13.15;63.27;101253.13;5031858;28;20448;-70
2022/05/14 01:29:13;;;;;;;5.03;3.70;;;13.10;90.00;;;13.09;63.53;101259.38;5015974;28;20449;-70
2022/05/14 01:31:43;;;;;;;6.23;5.17;;;13.00;90.70;;;13.14;63.41;101247.91;5022148;28;20508;-70
2022/05/14 01:34:17;;;;;;;4.87;4.30;;;13.10;90.00;;;13.04;63.53;101238.25;5026544;28;20529;-71
2022/05/14 01:36:46;;;;;;;6.60;4.50;;;13.00;90.10;;;13.16;63.48;101243.94;5016510;28;20447;-69
2022/05/14 01:39:15;;;;;;;9.43;4.30;;;13.00;91.00;;;13.20;63.23;101234.31;5015074;28;20475;-70
2022/05/14 01:41:46;;;;;;;4.47;3.87;;;13.10;90.10;;;13.12;63.44;101234.50;5018533;28;20517;-70
2022/05/14 01:44:15;;;;;;;4.20;3.90;;;13.00;89.10;;;13.40;62.69;101246.00;5035057;28;20981;-70
2022/05/14 01:46:43;;;;;;;4.60;3.93;;;13.20;86.00;;;13.27;63.03;101239.72;5024628;28;20541;-69
2022/05/14 01:49:12;;;;;;;6.13;4.73;;;13.20;86.00;;;13.39;62.63;101255.19;5023461;28;20445;-70
2022/05/14 01:51:41;;;;;;;8.00;6.37;;;13.30;86.20;;;13.29;62.97;101243.91;5020080;28;20855;-71
2022/05/14 01:54:12;;;;;;;7.60;4.90;;;13.20;85.70;;;13.39;62.76;101254.34;5035348;28;20837;-70
2022/05/14 01:56:40;;;;;;;4.97;4.47;;;13.30;85.40;;;13.22;63.04;101251.22;5031877;28;20915;-71
2022/05/14 01:59:10;;;;;;;5.10;4.50;;;13.20;84.80;;;13.20;63.05;101250.63;5022696;28;20482;-70
2022/05/14 02:01:39;;;;;;;8.43;4.80;;;13.10;85.40;;;13.16;63.31;101254.81;5010357;28;20859;-72
2022/05/14 02:04:12;;;;;;;5.50;3.93;;;13.10;87.20;;;13.16;63.14;101253.97;5011591;28;20460;-70
2022/05/14 02:06:44;;;;;;;9.80;5.10;;;13.10;86.00;;;13.11;63.34;101251.88;5022478;28;21023;-69
2022/05/14 02:09:15;;;;;;;4.57;3.83;;;13.00;86.90;;;13.11;63.19;101254.59;5024629;28;20475;-69
2022/05/14 02:11:50;;;;;;;6.00;4.77;;;13.00;87.00;;;13.12;62.98;101253.53;5010824;28;20573;-70
2022/05/14 02:14:27;;;;;;;4.00;3.33;;;13.00;86.30;;;13.09;63.41;101253.94;5030419;28;20453;-69
2022/05/14 02:16:57;;;;;;;4.53;4.13;;;13.00;88.30;;;13.05;63.49;101241.81;5028847;28;20530;-70
2022/05/14 02:19:26;;;;;;;4.83;4.33;;;13.00;89.00;;;13.02;63.59;101236.81;5011976;28;20555;-70
2022/05/14 02:21:55;;;;;;;4.77;4.23;;;12.90;88.30;;;13.06;63.19;101244.34;5017036;28;20468;-71
2022/05/14 02:24:24;;;;;;;4.80;3.57;;;12.90;87.20;;;13.06;63.16;101248.94;5018455;28;20445;-70
2022/05/14 02:26:53;;;;;;;5.63;4.40;;;12.90;87.40;;;13.17;62.84;101256.47;5034103;28;20453;-69
2022/05/14 02:29:22;;;;;;;4.07;3.70;;;13.00;86.10;;;13.12;63.04;101252.72;5026387;28;20475;-70
2022/05/14 02:31:52;;;;;;;5.10;3.83;;;13.00;85.80;;;13.23;62.39;101258.34;5009687;28;20564;-70
2022/05/14 02:34:21;;;;;;;3.90;3.60;;;13.10;83.30;;;13.20;62.71;101258.78;5010136;28;21027;-70
2022/05/14 02:36:49;;;;;;;4.40;3.87;;;13.10;84.00;;;13.10;62.85;101261.03;5034749;28;20523;-69
2022/05/14 02:39:18;;;;;;;3.40;3.10;;;13.10;84.90;;;13.23;62.46;101254.78;5012227;28;20527;-70
2022/05/14 02:41:47;;;;;;;4.30;3.67;;;13.10;81.90;;;13.23;62.69;101254.78;5020987;28;20484;-70
2022/05/14 02:44:16;;;;;;;4.80;3.97;;;13.10;83.40;;;13.20;62.33;101256.06;5021936;28;20439;-70
2022/05/14 02:46:44;;;;;;;4.63;4.10;;;13.10;82.20;;;13.17;62.32;101261.09;5027024;28;21034;-70
2022/05/14 02:49:14;;;;;;;3.70;3.40;;;13.10;80.10;;;13.18;62.19;101262.72;5019029;28;20448;-70
2022/05/14 02:51:43;;;;;;;4.50;3.10;;;13.10;80.20;;;13.14;62.47;101254.16;5023087;28;20481;-70
2022/05/14 02:54:12;;;;;;;6.33;3.40;;;13.00;81.10;;;13.09;62.53;101251.22;5009546;28;20454;-69
2022/05/14 02:56:40;;;;;;;3.83;3.53;;;13.00;80.90;;;13.04;62.65;101245.56;5016894;28;20483;-70
2022/05/14 02:59:09;;;;;;;6.67;4.03;;;13.00;81.20;;;13.11;62.31;101251.88;5028882;28;20467;-70
2022/05/14 03:01:47;;;;;;;3.57;3.27;;;13.00;77.80;;;12.94;62.87;101262.28;5026447;28;20500;-68
2022/05/14 03:04:25;;;;;;;8.07;4.17;;;12.90;79.10;;;12.79;63.35;101256.22;5005478;28;20525;-69
2022/05/14 03:06:56;;;;;;;6.40;4.10;;;12.80;83.50;;;12.67;63.61;101259.78;5021173;28;20472;-69
2022/05/14 03:09:26;;;;;;;7.20;3.93;;;12.80;84.30;;;12.60;64.06;101260.59;5012500;28;20477;-69
2022/05/14 03:11:55;;;;;;;5.90;4.20;;;12.70;86.80;;;12.43;64.60;101253.06;5024526;28;20475;-71
2022/05/14 03:14:24;;;;;;;4.03;3.40;;;12.60;89.90;;;12.34;64.74;101251.56;5014081;28;20502;-70
2022/05/14 03:16:54;;;;;;;5.23;3.40;;;12.40;91.30;;;12.34;65.01;101257.84;5034909;28;20576;-70
2022/05/14 03:19:24;;;;;;;8.00;4.50;;;12.40;92.60;;;12.31;64.85;101257.38;5014914;28;20469;-69
2022/05/14 03:21:54;;;;;;;5.30;3.90;;;12.30;92.40;;;12.30;65.00;101253.84;5018012;28;20530;-70
2022/05/14 03:24:23;;;;;;;7.40;4.20;;;12.30;93.80;;;12.27;65.35;101264.28;5020211;28;20788;-70
2022/05/14 03:26:52;;;;;;;4.83;4.20;;;12.30;94.00;;;12.25;65.30;101256.31;5028966;28;20838;-70
2022/05/14 03:29:21;;;;;;;4.97;4.10;;;12.20;94.90;;;12.15;65.85;101261.34;5031135;28;20448;-70
2022/05/14 03:31:50;;;;;;;4.53;3.67;;;12.20;96.70;;;12.34;65.12;101260.56;5029132;28;20477;-70
2022/05/14 03:34:19;;;;;;;5.10;4.50;;;12.20;96.00;;;12.64;64.38;101259.13;5011061;28;21197;-71
2022/05/14 03:36:49;;;;;;;5.67;4.53;;;12.30;95.40;;;12.93;63.37;101259.78;5014020;28;20543;-68
2022/05/14 03:39:19;;;;;;;6.50;3.90;;;12.50;94.00;;;12.83;63.76;101259.38;5012820;28;20536;-70
2022/05/14 03:41:48;;;;;;;6.17;3.37;;;12.50;92.80;;;12.94;63.42;101261.47;5025655;28;20464;-70
2022/05/14 03:44:17;;;;;;;6.23;3.43;;;12.60;92.90;;;13.38;62.31;101258.94;5010572;28;20452;-71
2022/05/14 03:46:46;;;;;;;4.23;3.73;;;12.80;91.80;;;13.91;60.63;101259.63;5018888;28;20449;-71
2022/05/14 03:49:15;;;;;;;7.57;3.60;;;13.00;87.30;;;14.31;59.70;101256.75;5035624;28;20448;-69
2022/05/14 03:51:44;;;;;;;6.53;3.80;;;13.30;83.00;;;14.82;58.22;101255.78;5012550;28;20472;-69
2022/05/14 03:54:15;;;;;;;4.90;3.90;;;13.60;78.60;;;15.22;57.11;101259.88;5021438;28;20449;-71
2022/05/14 03:56:43;;;;;;;5.07;3.33;;;13.80;72.50;;;15.67;55.76;101249.59;5017255;28;20453;-70
2022/05/14 03:59:12;;;;;;;9.10;3.20;;;14.10;66.00;;;15.94;54.96;101256.38;5020694;28;20444;-69
2022/05/14 04:01:41;;;;;;;4.20;3.80;;;14.40;56.30;;;16.20;54.22;101251.66;5017832;28;20576;-69
2022/05/14 04:04:10;;;;;;;7.03;3.53;;;14.70;53.00;;;16.63;53.14;101257.78;5005992;28;20456;-70
2022/05/14 04:06:39;;;;;;;5.93;3.23;;;14.90;49.90;;;16.74;52.97;101251.53;5020878;28;20453;-69
2022/05/14 04:09:07;;;;;;;7.73;4.73;;;14.80;48.70;;;17.10;51.87;101249.66;5003761;28;20445;-68
2022/05/14 04:11:38;;;;;;;3.97;3.50;;;15.20;43.90;;;17.47;50.86;101251.13;5016359;28;20892;-70
2022/05/14 04:14:07;;;;;;;4.63;3.30;;;15.60;38.20;;;17.68;50.31;101256.00;5019144;28;20427;-70
2022/05/14 04:16:36;;;;;;;5.87;3.43;;;15.90;37.80;;;18.10;49.42;101261.28;5019538;28;20520;-70
2022/05/14 04:19:05;;;;;;;4.60;3.00;;;16.10;33.40;;;18.29;49.16;101268.25;5046535;28;20451;-71
2022/05/14 04:21:34;;;;;;;5.03;3.77;;;16.30;31.20;;;18.44;48.63;101268.53;5032434;28;20462;-71
2022/05/14 04:24:04;;;;;;;7.70;3.23;;;16.50;29.40;;;18.85;48.23;101266.53;5041669;28;20452;-70
2022/05/14 04:26:33;;;;;;;4.00;3.60;;;16.50;28.40;;;18.90;47.60;101258.41;5028235;28;20913;-69
2022/05/14 04:29:04;;;;;;;4.87;4.37;;;16.60;26.30;;;18.96;48.05;101266.47;5030003;28;20959;-70
2022/05/14 04:31:33;;;;;;;4.97;4.30;;;16.50;27.20;;;19.00;46.94;101262.16;5025352;28;20514;-70
2022/05/14 04:34:03;;;;;;;8.37;4.17;;;16.50;25.00;;;19.18;47.17;101266.56;5021653;28;20416;-70
2022/05/14 04:36:31;;;;;;;5.67;4.17;;;16.70;25.30;;;19.62;46.15;101252.97;5035991;28;20547;-68
2022/05/14 04:39:00;;;;;;;4.20;3.80;;;17.00;24.00;;;19.82;45.76;101256.84;5008151;28;20441;-69
2022/05/14 04:41:30;;;;;;;9.50;4.70;;;17.20;23.00;;;20.02;45.29;101252.69;5028913;28;20570;-69
2022/05/14 04:44:02;;;;;;;4.73;3.83;;;17.40;20.50;;;19.77;45.50;101264.16;5024660;28;21007;-68
2022/05/14 04:46:35;;;;;;;6.60;3.20;;;17.80;19.40;;;19.61;45.74;101265.03;5027845;28;20853;-70
2022/05/14 04:49:04;;;;;;;6.83;4.60;;;17.80;17.70;;;19.52;45.80;101273.72;5015890;28;20441;-69
2022/05/14 04:51:33;;;;;;;8.60;3.50;;;17.80;17.40;;;19.84;45.34;101262.91;5009243;28;20553;-69
2022/05/14 04:54:02;;;;;;;3.83;3.30;;;17.50;17.70;;;20.09;45.04;101273.38;5027566;28;20452;-68
2022/05/14 04:56:31;;;;;;;6.70;3.90;;;17.70;17.30;;;20.17;44.51;101272.94;5023428;28;20519;-69
2022/05/14 04:58:59;;;;;;;6.50;3.80;;;17.90;16.60;;;20.87;43.29;101277.53;5037385;28;20957;-69
2022/05/14 05:01:28;;;;;;;5.83;4.10;;;18.20;15.50;;;20.83;43.23;101276.41;5013901;28;20842;-68
2022/05/14 05:03:58;;;;;;;5.67;3.77;;;17.90;15.40;;;20.55;43.50;101273.94;5016251;28;20469;-69
2022/05/14 05:06:28;;;;;;;6.00;3.80;;;18.30;14.80;;;21.09;42.96;101275.56;5012353;28;20449;-69
2022/05/14 05:08:59;;;;;;;3.57;3.27;;;18.20;14.70;;;21.05;43.01;101271.69;5036942;28;20466;-69
2022/05/14 05:11:28;;;;;;;4.07;3.20;;;18.50;14.00;;;21.04;42.47;101278.25;5008672;28;20973;-69
2022/05/14 05:13:57;;;;;;;6.43;3.10;;;18.30;13.00;;;20.29;43.77;101281.88;5011341;28;20493;-70
2022/05/14 05:16:25;;;;;;;5.00;3.57;;;18.40;12.20;;;20.85;42.33;101285.25;5028895;28;20548;-69
2022/05/14 05:18:54;;;;;;;5.43;3.20;;;18.30;11.90;;;21.28;42.42;101294.44;5002873;28;20594;-69
2022/05/14 05:21:24;;;;;;;4.23;2.87;;;18.80;11.80;;;21.37;41.71;101292.84;5010687;28;20477;-69
2022/05/14 05:23:53;;;;;;;4.50;2.90;;;18.60;11.00;;;20.52;42.75;101297.28;5008208;28;20449;-70
2022/05/14 05:26:21;;;;;;;4.73;2.80;;;18.40;11.10;;;18.77;46.37;101302.59;5010934;28;20467;-69
2022/05/14 05:28:50;;;;;;;4.23;3.03;;;17.80;12.00;;;16.72;50.64;101300.13;5009664;28;20478;-68
2022/05/14 05:31:19;;;;;;;4.97;3.03;;;17.00;13.80;;;16.43;52.13;101303.66;5010665;28;20494;-67
2022/05/14 05:33:48;;;;;;;5.20;2.77;;;16.40;16.90;;;16.17;53.13;101298.56;5014065;28;20415;-69
2022/05/14 05:36:16;;;;;;;6.60;3.47;;;16.00;18.90;;;16.15;53.48;101301.50;5011491;28;20463;-68
2022/05/14 05:38:46;;;;;;;6.50;3.43;;;15.80;20.70;;;15.75;53.48;101300.28;5016239;28;20564;-68
2022/05/14 05:41:15;;;;;;;8.63;4.30;;;15.60;20.70;;;15.99;53.87;101302.94;5011907;28;20554;-68
2022/05/14 05:43:44;;;;;;;4.03;3.13;;;15.60;22.60;;;15.99;53.81;101308.41;5015080;28;20501;-69
2022/05/14 05:46:13;;;;;;;5.27;3.40;;;15.50;23.10;;;15.96;53.76;101310.75;5009692;28;20518;-67
2022/05/14 05:48:42;;;;;;;8.03;3.30;;;15.50;23.10;;;16.03;54.26;101309.59;5033364;28;20446;-69
2022/05/14 05:51:11;;;;;;;4.73;3.00;;;15.60;24.40;;;15.91;53.55;101303.25;5037125;23;20505;-64
2022/05/14 05:59:17;;;;;;;5.93;3.50;;;15.70;23.00;;;16.39;52.42;101299.72;5042432;28;20463;-64
2022/05/14 06:01:46;;;;;;;5.77;3.10;;;15.90;22.00;;;16.15;52.95;101306.97;5032368;28;20515;-65
2022/05/14 06:04:15;;;;;;;3.07;2.47;;;15.90;22.20;;;16.00;53.77;101311.97;5024284;28;20424;-64
2022/05/14 06:06:44;;;;;;;6.50;3.00;;;15.70;23.00;;;15.99;53.51;101307.56;5033590;28;20506;-64
2022/05/14 06:09:16;;;;;;;6.83;2.77;;;15.70;22.70;;;15.79;53.90;101317.88;5040377;28;20496;-63
2022/05/14 06:11:46;;;;;;;5.30;2.47;;;15.60;23.00;;;15.38;54.95;101335.66;5016394;28;20431;-63
2022/05/14 06:14:21;;;;;;;9.30;2.60;;;15.40;23.80;;;14.97;55.75;101340.78;5043098;28;21059;-63
2022/05/14 06:16:51;;;;;;;6.73;3.13;;;15.00;25.20;;;14.76;56.60;101337.34;5025471;28;20531;-63
2022/05/14 06:19:19;;;;;;;5.83;3.40;;;14.70;27.80;;;14.79;56.70;101339.66;5045499;28;20487;-66
2022/05/14 06:21:48;;;;;;;9.57;4.10;;;14.70;29.50;;;14.85;56.83;101337.94;5036648;28;20525;-64
2022/05/14 06:24:17;;;;;;;5.30;3.60;;;14.60;30.60;;;15.04;56.66;101336.13;5044230;28;20486;-64
2022/05/14 06:26:47;;;;;;;3.70;2.73;;;14.70;32.80;;;15.50;55.95;101335.75;5036011;28;20921;-64
2022/05/14 06:29:15;;;;;;;6.30;3.73;;;15.00;33.40;;;15.76;54.41;101324.63;5038761;28;20427;-64
2022/05/14 06:31:44;;;;;;;3.33;3.00;;;15.20;30.60;;;16.22;53.66;101335.00;5032998;28;20452;-64
2022/05/14 06:34:12;;;;;;;7.10;4.40;;;15.60;29.00;;;16.67;53.05;101331.94;5038797;28;20859;-64
2022/05/14 06:36:41;;;;;;;8.90;6.30;;;15.90;28.50;;;16.89;52.11;101331.16;5038721;28;20463;-64
2022/05/14 06:39:10;;;;;;;7.67;3.27;;;16.20;26.50;;;17.01;51.74;101322.19;5039100;28;20440;-64
2022/05/14 06:41:39;;;;;;;8.63;3.07;;;16.40;24.60;;;17.07;52.06;101333.03;5045616;28;20450;-66
2022/05/14 06:44:10;;;;;;;9.67;3.17;;;16.50;24.70;;;16.89;52.40;101344.84;5035152;28;20946;-64
2022/05/14 06:46:38;;;;;;;3.60;2.50;;;16.50;24.30;;;16.77;52.46;101349.44;5041384;28;20428;-65
2022/05/14 06:49:07;;;;;;;9.33;3.33;;;16.50;25.10;;;17.10;52.28;101332.53;5042657;28;20530;-64
2022/05/14 06:51:37;;;;;;;9.30;3.10;;;16.60;25.00;;;17.22;52.19;101340.78;5041774;28;20453;-64
2022/05/14 06:54:10;;;;;;;7.73;3.33;;;16.60;25.40;;;17.20;51.99;101340.16;5038244;28;20407;-64
2022/05/14 06:56:44;;;;;;;2.97;2.30;;;16.70;23.90;;;17.69;51.23;101342.50;5019732;28;20469;-64
2022/05/14 06:59:15;;;;;;;5.23;2.87;;;17.00;24.60;;;18.07;50.68;101343.91;5030863;28;20486;-64
2022/05/14 07:01:47;;;;;;;8.07;3.13;;;17.30;24.50;;;17.83;51.07;101342.25;5034897;28;20477;-64
2022/05/14 07:07:06;;;;;;;7.43;3.33;;;17.50;23.10;;;17.43;51.46;101353.88;5036074;28;20538;-64
2022/05/14 07:09:36;;;;;;;5.00;2.70;;;17.30;21.50;;;17.05;52.73;101356.19;5022392;28;20487;-64
2022/05/14 07:12:09;;;;;;;4.93;3.03;;;16.90;23.10;;;17.00;53.07;101356.03;5029067;28;20569;-63
2022/05/14 07:14:46;;;;;;;9.77;4.03;;;16.70;23.60;;;16.69;53.85;101352.50;5034566;28;20491;-64
2022/05/14 07:17:16;;;;;;;5.37;3.13;;;16.50;24.40;;;16.96;53.59;101347.47;5038431;28;20897;-64
2022/05/14 07:19:45;;;;;;;5.80;2.30;;;16.60;24.70;;;17.07;53.75;101349.44;5032129;28;20523;-63
2022/05/14 07:22:16;;;;;;;3.77;2.83;;;16.60;24.70;;;17.37;52.51;101338.44;5048566;28;20484;-64
2022/05/14 07:24:46;;;;;;;7.20;3.77;;;16.80;23.70;;;17.19;52.86;101342.06;5043274;28;20462;-64
2022/05/14 07:27:15;;;;;;;5.73;3.40;;;16.80;23.80;;;17.15;52.97;101340.03;5035876;28;20470;-64
2022/05/14 07:29:47;;;;;;;5.37;2.90;;;16.80;23.90;;;17.20;52.68;101342.91;5047356;28;20505;-65
2022/05/14 07:32:19;;;;;;;9.70;3.60;;;16.90;23.60;;;17.25;52.86;101335.66;5032688;28;20461;-64
2022/05/14 07:34:48;;;;;;;3.90;3.30;;;16.90;24.00;;;17.24;52.96;101341.38;5039426;28;20445;-64
2022/05/14 07:37:22;;;;;;;5.30;3.00;;;16.90;24.30;;;17.69;52.25;101348.00;5034514;28;20436;-63
2022/05/14 07:39:56;;;;;;;7.50;2.90;;;17.20;24.30;;;17.40;52.96;101337.94;5032532;28;20414;-64
2022/05/14 07:42:32;;;;;;;8.23;3.43;;;17.10;24.10;;;17.51;52.53;101336.28;5035249;28;20473;-63
2022/05/14 07:45:05;;;;;;;5.33;4.10;;;17.10;23.70;;;17.77;51.99;101331.19;5038936;28;20873;-64
2022/05/14 07:47:36;;;;;;;5.10;3.23;;;17.40;23.30;;;18.17;51.65;101338.66;5047555;28;20436;-64
2022/05/14 07:50:07;;;;;;;4.47;3.20;;;17.50;23.80;;;18.39;50.60;101336.94;5036298;28;20449;-63
2022/05/14 07:52:38;;;;;;;15.83;3.80;;;17.80;22.10;;;17.78;51.74;101335.59;5033822;28;20468;-63
2022/05/14 07:55:09;;;;;;;5.67;3.00;;;17.60;21.30;;;17.43;52.91;101336.66;5033983;28;20951;-65
2022/05/14 07:57:39;;;;;;;5.70;2.40;;;17.20;22.40;;;17.74;52.36;101339.91;5036063;28;20428;-65
2022/05/14 08:00:11;;;;;;;7.20;3.43;;;17.30;23.10;;;18.14;51.74;101333.66;5037231;28;20446;-63
2022/05/14 08:02:44;;;;;;;5.97;3.30;;;17.50;23.10;;;18.26;51.52;101350.88;5021383;28;20533;-63
2022/05/14 08:05:16;;;;;;;7.10;2.90;;;17.70;22.50;;;17.76;51.76;101332.28;5045807;28;20466;-64
2022/05/14 08:07:45;;;;;;;5.80;2.90;;;17.60;21.20;;;18.05;51.58;101330.47;5040565;28;20835;-64
2022/05/14 08:10:17;;;;;;;6.13;2.57;;;17.60;21.90;;;18.19;51.20;101328.28;5042923;28;20447;-65
2022/05/14 08:12:50;;;;;;;3.70;2.50;;;17.70;21.60;;;18.48;50.10;101342.88;5037959;28;20427;-64
2022/05/14 08:15:26;;;;;;;5.47;3.03;;;18.00;20.60;;;18.53;50.38;101343.81;5037485;28;20440;-65
2022/05/14 08:17:56;;;;;;;8.47;3.50;;;18.10;20.40;;;18.06;51.04;101342.22;5029831;28;20470;-64
2022/05/14 08:20:26;;;;;;;4.63;2.80;;;18.00;19.70;;;17.96;51.14;101350.25;5033138;28;20968;-64
2022/05/14 08:25:42;;;;;;;4.03;2.70;;;17.70;20.60;;;18.34;50.67;101345.06;5021269;28;20495;-65
2022/05/14 08:28:11;;;;;;;3.77;3.40;;;17.80;20.50;;;18.18;50.79;101352.09;5045057;28;20436;-64
2022/05/14 08:30:42;;;;;;;3.30;2.70;;;17.90;19.90;;;18.30;50.89;101338.38;5039682;28;20464;-65
2022/05/14 08:33:11;;;;;;;3.70;3.40;;;17.90;20.00;;;18.87;50.09;101346.66;5033882;28;20437;-64
2022/05/14 08:35:42;;;;;;;2.87;2.40;;;18.30;20.00;;;18.95;49.47;101343.50;5025965;28;20490;-65
2022/05/14 08:38:14;;;;;;;6.23;3.30;;;18.40;18.50;;;18.86;48.90;101334.84;5030141;28;20934;-64
2022/05/14 08:40:54;;;;;;;5.03;3.37;;;18.50;17.80;;;18.99;49.71;101342.78;5035455;28;20819;-64
2022/05/14 08:43:31;;;;;;;5.33;3.47;;;18.50;18.50;;;18.86;49.52;101329.38;5038837;28;21043;-65
2022/05/14 08:46:01;;;;;;;8.33;3.90;;;18.40;17.60;;;19.29;48.74;101326.00;5046318;28;20525;-63
2022/05/14 08:48:35;;;;;;;5.00;3.27;;;18.70;17.70;;;19.41;48.64;101332.22;5035346;28;20456;-64
2022/05/14 08:51:08;;;;;;;6.40;3.40;;;18.90;16.90;;;19.35;48.49;101329.66;5048545;28;20532;-64
2022/05/14 08:53:39;;;;;;;4.37;2.57;;;19.00;16.60;;;19.84;48.21;101328.00;5043020;28;20527;-64
2022/05/14 08:56:26;;;;;;;11.07;3.03;;;19.20;16.70;;;20.20;46.95;101327.38;5035505;28;20406;-64
2022/05/14 08:59:42;;;;;;;11.83;3.10;;;19.50;15.70;;;20.17;46.11;101322.41;5040750;28;20405;-63
2022/05/14 09:02:19;;;;;;;4.40;2.70;;;19.70;13.60;;;20.14;46.88;101328.38;5015142;28;20558;-65
2022/05/14 09:04:50;;;;;;;6.73;2.43;;;19.60;14.20;;;19.71;47.72;101328.31;5031729;28;20414;-62
2022/05/14 09:07:20;;;;;;;3.43;2.63;;;19.40;14.10;;;19.92;47.55;101320.13;5029164;28;20850;-64
2022/05/14 09:09:52;;;;;;;5.40;2.97;;;19.50;14.80;;;19.83;46.93;101324.41;5026290;28;20448;-64
2022/05/14 09:12:35;;;;;;;5.50;3.03;;;19.50;13.10;;;19.89;46.56;101322.56;5035888;28;20467;-63
2022/05/14 09:15:14;;;;;;;6.07;2.83;;;19.40;13.00;;;20.49;45.64;101329.94;5030905;28;20462;-64
2022/05/14 09:17:45;;;;;;;6.80;5.37;;;19.80;13.70;;;20.56;45.57;101319.59;5032680;28;20451;-65
2022/05/14 09:20:25;;;;;;;7.43;4.63;;;20.00;12.10;;;20.22;45.59;101322.47;5028529;28;20448;-64
2022/05/14 09:22:58;;;;;;;4.00;2.30;;;19.90;10.70;;;19.93;45.60;101318.22;5033571;28;20533;-65
2022/05/14 09:25:31;;;;;;;3.67;2.50;;;19.70;10.10;;;18.86;48.26;101323.91;5019727;28;21023;-65
2022/05/14 09:28:04;;;;;;;6.33;2.93;;;19.10;11.50;;;18.75;47.11;101323.94;5030888;28;20448;-64
2022/05/14 09:30:39;;;;;;;5.90;2.10;;;18.80;10.40;;;18.66;47.69;101326.25;5033512;28;20451;-64
2022/05/14 09:33:35;;;;;;;6.20;2.87;;;18.60;10.80;;;18.03;48.18;101338.09;5032732;28;20530;-64
2022/05/14 09:36:24;;;;;;;7.00;3.03;;;18.00;11.10;;;18.21;46.74;101326.13;5035194;28;21031;-63
2022/05/14 09:39:03;;;;;;;10.43;2.90;;;18.00;9.70;;;18.41;47.59;101333.94;5063853;28;20435;-64
2022/05/14 09:41:42;;;;;;;6.60;3.37;;;18.10;11.10;;;17.93;47.95;101337.00;5029569;28;20483;-64
2022/05/14 09:44:21;;;;;;;6.47;2.47;;;17.80;10.30;;;18.40;46.94;101324.88;5032824;28;20492;-63
2022/05/14 09:46:52;;;;;;;4.40;2.60;;;18.00;9.90;;;18.62;44.54;101317.69;5032710;28;20533;-63
2022/05/14 09:49:26;;;;;;;12.47;3.00;;;18.40;6.90;;;18.64;45.07;101320.16;5036747;28;20444;-64
2022/05/14 09:52:01;;;;;;;11.17;2.53;;;18.40;7.40;;;18.33;44.28;101343.38;5034280;28;20464;-63
2022/05/14 09:54:41;;;;;;;14.80;3.00;;;18.30;5.60;;;18.55;43.96;101324.38;5038738;28;20802;-63
2022/05/14 09:57:45;;;;;;;9.43;3.17;;;18.30;5.80;;;18.74;44.39;101333.22;5030903;28;20473;-65
2022/05/14 10:00:19;;;;;;;6.03;2.87;;;18.40;6.30;;;18.85;43.18;101340.59;5013849;28;20447;-63
2022/05/14 10:03:27;;;;;;;5.77;2.67;;;18.60;4.90;;;18.66;43.02;101326.25;5016436;28;20534;-64
2022/05/14 10:06:15;;;;;;;3.67;2.10;;;18.50;7.60;;;19.16;42.18;101320.84;5017554;28;21060;-63
2022/05/14 10:09:10;;;;;;;7.80;2.80;;;18.80;6.90;;;19.55;41.62;101320.97;5046322;28;20449;-64
2022/05/14 10:11:44;;;;;;;10.80;3.20;;;19.10;6.00;;;19.78;40.25;101329.00;5031097;28;20438;-63
2022/05/14 10:14:30;;;;;;;3.60;2.20;;;19.40;4.80;;;19.50;41.04;101330.78;5041538;28;20438;-63
2022/05/14 10:17:30;;;;;;;9.37;3.30;;;19.30;4.40;;;19.23;41.09;101326.16;5048402;28;20530;-64
2022/05/14 10:20:35;;;;;;;6.13;2.70;;;19.10;4.20;;;19.28;40.99;101327.09;5019984;28;20465;-64
2022/05/14 10:27:24;;;;;;;7.13;2.93;;;19.20;2.70;;;19.75;39.10;101346.00;4952717;28;20852;-64
2022/05/14 10:30:14;;;;;;;3.83;2.47;;;19.50;2.60;;;19.97;39.43;101324.88;4967818;28;20927;-64
2022/05/14 10:32:44;;;;;;;6.77;2.77;;;19.60;2.70;;;20.05;39.83;101323.59;5034038;28;20407;-63
2022/05/14 10:35:19;;;;;;;6.57;2.33;;;19.70;4.60;;;20.41;38.75;101316.66;5046554;28;20959;-63
2022/05/14 10:37:53;;;;;;;4.03;2.20;;;20.00;2.50;;;19.83;39.17;101331.81;5021146;28;20463;-64
2022/05/14 10:40:32;;;;;;;7.40;2.87;;;19.80;1.40;;;19.93;39.05;101315.47;5041987;28;20443;-63
2022/05/14 10:43:25;;;;;;;5.90;2.40;;;19.70;1.70;;;20.09;39.36;101317.31;5038298;28;20462;-63
2022/05/14 10:45:58;;;;;;;10.03;3.33;;;19.80;1.00;;;20.76;39.20;101322.56;5042741;28;20843;-63
2022/05/14 10:48:42;;;;;;;9.03;2.77;;;20.20;1.00;;;20.69;38.57;101317.25;5036587;28;20428;-64
2022/05/14 10:51:20;;;;;;;6.63;2.70;;;20.40;1.00;;;21.04;38.92;101325.03;5038253;28;20482;-64
2022/05/14 10:53:50;;;;;;;5.97;2.30;;;20.50;1.00;;;20.71;39.21;101317.84;5036798;28;20470;-63